メインページ
METAR-TAF:

METAR-TAF

空港 :

フワヒン空港

フワヒン, タイ

緯度: 12-35N, 経度: 099-57E, 海抜: 5m

現時点の気象観測

当レポートは18分前の05:00(UTC)に作成
南東の風 11kt
気温 33°C
湿度 63%
気圧 1007 hPa
視程10km以上
高度3000ftの雲はほとんどない

METAR: VTPH 180500Z 13011KT 9999 FEW030 33/25 Q1007 NOSIG

時間: 12:18 (05:18 UTC)

予報

当レポートは6時間18分前の23:00(UTC)に作成
予報は18日の 00時(UTC)から 18日の 24時(UTC)まで有効
西/南西の風 3kt
視程10km以上
高度3000ftの雲はほとんどない
高度10000ftの千切れ雲あり
18日の 04時(UTC)から 18日の 06時(UTC)まで徐々に
南東の風 10kt
18日の 12時(UTC)から 18日の 14時(UTC)まで徐々に
西/南西の風 3kt

TAF: VTPH 172300Z 1800/1824 24003KT 9999 FEW030 BKN100 BECMG 1804/1806 14010KT BECMG 1812/1814 24003KT

4,000以上の空港の気象観測と天気予報(METAR報とTAF報)

利用可能な観測所は地図上に黄色い丸と赤い丸で示す。

丸の上にカーソルを重ねると観測所名を参照できる。

次にクリックすると気象観測と天気予報を参照できる。

マップの切り替え:黒色「×」印の緑ボタンをクリックして拡大、「-」印の緑ボタンをクリックして縮小、緑色の三角印をクリックして隣りの地図に切り替え


METAR-TAF: